createdAt,value
2019-02-09T00:01:07.315Z,15.30
2019-02-09T00:03:36.758Z,13.23
2019-02-09T00:06:06.783Z,14.17
2019-02-09T00:08:36.244Z,12.67
2019-02-09T00:11:06.386Z,14.47
2019-02-09T00:13:35.876Z,14.40
2019-02-09T00:16:06.370Z,15.13
2019-02-09T00:18:36.071Z,15.23
2019-02-09T00:21:06.417Z,14.70
2019-02-09T00:23:36.011Z,14.53
2019-02-09T00:26:05.914Z,14.33
2019-02-09T00:28:35.331Z,14.03
2019-02-09T00:31:05.154Z,14.60
2019-02-09T00:33:34.940Z,13.37
2019-02-09T00:36:05.748Z,14.03
2019-02-09T00:38:35.143Z,13.30
2019-02-09T00:41:04.652Z,12.27
2019-02-09T00:43:34.125Z,14.47
2019-02-09T00:46:03.617Z,13.43
2019-02-09T00:48:33.074Z,14.07
2019-02-09T00:51:02.564Z,13.77
2019-02-09T00:53:31.940Z,12.50
2019-02-09T00:56:01.604Z,14.20
2019-02-09T00:58:31.102Z,12.90
2019-02-09T01:01:00.562Z,13.90
2019-02-09T01:03:29.985Z,13.53
2019-02-09T01:05:59.388Z,14.33
2019-02-09T01:08:28.847Z,14.57
2019-02-09T01:10:58.370Z,13.27
2019-02-09T01:13:27.747Z,14.13
2019-02-09T01:15:57.199Z,13.03
2019-02-09T01:18:26.719Z,14.33
2019-02-09T01:20:56.254Z,13.23
2019-02-09T01:23:25.624Z,14.03
2019-02-09T01:25:55.106Z,13.80
2019-02-09T01:28:24.584Z,14.10
2019-02-09T01:30:53.990Z,15.17
2019-02-09T01:33:23.491Z,13.67
2019-02-09T01:35:52.951Z,14.73
2019-02-09T01:38:22.319Z,14.87
2019-02-09T01:40:51.931Z,14.47
2019-02-09T01:43:21.414Z,16.30
2019-02-09T01:49:14.163Z,15.43
2019-02-09T01:51:43.546Z,14.87
2019-02-09T01:54:13.027Z,15.07
2019-02-09T01:56:42.615Z,15.87
2019-02-09T01:59:12.004Z,17.37
2019-02-09T02:01:41.407Z,14.30
2019-02-09T02:04:11.184Z,15.63
2019-02-09T02:06:40.647Z,16.23
2019-02-09T02:09:10.035Z,14.53
2019-02-09T02:11:39.726Z,15.77
2019-02-09T02:14:09.224Z,15.07
2019-02-09T02:16:38.588Z,15.03
2019-02-09T02:19:08.254Z,16.67
2019-02-09T02:21:37.822Z,16.20
2019-02-09T02:27:12.370Z,16.60
2019-02-09T02:29:41.877Z,15.83
2019-02-09T02:32:11.359Z,14.20
2019-02-09T02:34:40.753Z,14.53
2019-02-09T02:37:10.180Z,14.77
2019-02-09T02:39:39.749Z,16.23
2019-02-09T02:42:09.215Z,16.83
2019-02-09T02:44:38.656Z,15.33
2019-02-09T02:47:08.039Z,15.83
2019-02-09T02:49:37.510Z,15.33
2019-02-09T02:52:07.119Z,14.33
2019-02-09T02:54:36.592Z,14.37
2019-02-09T02:57:06.060Z,15.23
2019-02-09T02:59:35.564Z,14.30
2019-02-09T03:02:05.511Z,14.70
2019-02-09T03:04:34.970Z,14.40
2019-02-09T03:07:05.227Z,15.17
2019-02-09T03:09:34.600Z,14.30
2019-02-09T03:12:04.178Z,14.13
2019-02-09T03:14:34.076Z,14.27
2019-02-09T03:17:03.552Z,13.93
2019-02-09T03:19:32.927Z,13.80
2019-02-09T03:22:02.448Z,14.70
2019-02-09T03:24:31.921Z,14.80
2019-02-09T03:27:01.391Z,15.13
2019-02-09T03:29:30.819Z,15.30
2019-02-09T03:32:00.220Z,14.23
2019-02-09T03:34:29.681Z,15.43
2019-02-09T03:36:59.362Z,15.37
2019-02-09T03:39:28.723Z,15.20
2019-02-09T03:41:58.106Z,15.43
2019-02-09T03:44:27.614Z,15.27
2019-02-09T03:46:57.087Z,16.03
2019-02-09T03:49:26.470Z,15.53
2019-02-09T03:51:55.942Z,14.43
2019-02-09T03:54:25.418Z,16.23
2019-02-09T03:56:55.182Z,15.60
2019-02-09T03:59:24.588Z,13.70
2019-02-09T04:01:54.060Z,13.87
2019-02-09T04:04:23.538Z,14.10
2019-02-09T04:06:53.235Z,14.37
2019-02-09T04:09:23.522Z,14.87
2019-02-09T04:11:52.978Z,14.60
2019-02-09T04:14:22.404Z,14.33
2019-02-09T04:16:51.795Z,14.33
2019-02-09T04:19:21.487Z,16.23
2019-02-09T04:21:51.206Z,14.10
2019-02-09T04:24:20.593Z,14.70
2019-02-09T04:26:49.993Z,14.33
2019-02-09T04:29:19.523Z,15.20
2019-02-09T04:31:48.977Z,14.03
2019-02-09T04:34:18.357Z,14.97
2019-02-09T04:36:47.917Z,14.70
2019-02-09T04:39:17.394Z,15.30
2019-02-09T04:41:46.844Z,16.13
2019-02-09T04:44:16.332Z,15.33
2019-02-09T04:46:45.721Z,14.93
2019-02-09T04:49:15.180Z,14.93
2019-02-09T04:51:44.603Z,14.60
2019-02-09T04:54:14.091Z,15.27
2019-02-09T04:56:43.559Z,14.53
2019-02-09T04:59:12.980Z,15.27
2019-02-09T05:01:42.351Z,15.33
2019-02-09T05:04:11.816Z,13.47
2019-02-09T05:06:41.312Z,16.37
2019-02-09T05:09:10.703Z,15.03
2019-02-09T05:11:40.093Z,14.60
2019-02-09T05:14:09.618Z,15.53
2019-02-09T05:16:39.144Z,15.77
2019-02-09T05:19:08.630Z,17.87
2019-02-09T05:21:38.065Z,18.33
2019-02-09T05:24:07.576Z,17.23
2019-02-09T05:26:37.055Z,15.97
2019-02-09T05:29:06.526Z,15.70
2019-02-09T05:31:36.079Z,16.33
2019-02-09T05:34:05.557Z,17.67
2019-02-09T05:36:35.008Z,18.03
2019-02-09T05:39:06.037Z,19.33
2019-02-09T05:41:35.487Z,17.73
2019-02-09T05:44:05.055Z,17.13
2019-02-09T05:46:35.263Z,16.97
2019-02-09T05:49:04.749Z,17.43
2019-02-09T05:51:34.257Z,17.17
2019-02-09T05:54:03.656Z,15.47
2019-02-09T05:56:33.236Z,17.00
2019-02-09T05:59:02.774Z,17.00
2019-02-09T06:01:32.738Z,16.77
2019-02-09T06:04:02.195Z,17.90
2019-02-09T06:06:31.617Z,17.50
2019-02-09T06:09:01.099Z,17.90
2019-02-09T06:11:30.487Z,15.90
2019-02-09T06:13:59.982Z,16.03
2019-02-09T06:16:30.779Z,17.73
2019-02-09T06:19:00.657Z,16.80
2019-02-09T06:21:30.317Z,16.77
2019-02-09T06:24:00.120Z,16.13
2019-02-09T06:26:29.605Z,16.53
2019-02-09T06:28:59.050Z,16.67
2019-02-09T06:31:28.443Z,15.73
2019-02-09T06:33:57.928Z,14.80
2019-02-09T06:36:27.432Z,15.73
2019-02-09T06:38:56.809Z,16.47
2019-02-09T06:41:26.197Z,17.10
2019-02-09T06:43:55.701Z,16.93
2019-02-09T06:46:25.156Z,17.10
2019-02-09T06:48:54.605Z,26.00
2019-02-09T06:51:24.103Z,22.43
2019-02-09T06:53:53.488Z,16.50
2019-02-09T06:56:22.924Z,16.73
2019-02-09T06:58:52.548Z,18.37
2019-02-09T07:01:22.048Z,15.93
2019-02-09T07:03:51.482Z,15.80
2019-02-09T07:06:20.929Z,21.87
2019-02-09T07:08:51.151Z,20.67
2019-02-09T07:11:20.705Z,22.17
2019-02-09T07:13:50.291Z,20.27
2019-02-09T07:16:19.688Z,16.73
2019-02-09T07:18:49.181Z,14.20
2019-02-09T07:21:18.704Z,16.27
2019-02-09T07:23:48.322Z,14.10
2019-02-09T07:26:17.736Z,15.63
2019-02-09T07:28:47.244Z,14.27
2019-02-09T07:31:16.648Z,14.93
2019-02-09T07:33:46.253Z,14.97
2019-02-09T07:36:16.069Z,16.93
2019-02-09T07:38:45.447Z,15.50
2019-02-09T07:41:14.871Z,17.00
2019-02-09T07:43:44.619Z,17.87
2019-02-09T07:46:14.413Z,17.23
2019-02-09T07:48:43.773Z,16.67
2019-02-09T07:51:13.844Z,16.43
2019-02-09T07:53:43.308Z,18.27
2019-02-09T07:56:12.868Z,19.63
2019-02-09T07:58:42.473Z,18.03
2019-02-09T08:01:11.829Z,18.57
2019-02-09T08:03:41.339Z,17.77
2019-02-09T08:06:10.955Z,19.73
2019-02-09T08:08:40.316Z,19.53
2019-02-09T08:11:09.913Z,20.03
2019-02-09T08:13:39.361Z,19.03
2019-02-09T08:16:09.001Z,21.87
2019-02-09T08:18:39.505Z,20.87
2019-02-09T08:21:09.140Z,21.73
2019-02-09T08:23:38.554Z,22.73
2019-02-09T08:26:07.942Z,21.63
2019-02-09T08:28:37.482Z,22.70
2019-02-09T08:31:07.055Z,21.33
2019-02-09T08:33:36.423Z,23.00
2019-02-09T08:36:05.835Z,23.13
2019-02-09T08:38:35.306Z,21.57
2019-02-09T08:41:04.754Z,21.93
2019-02-09T08:43:34.314Z,21.63
2019-02-09T08:46:03.804Z,20.83
2019-02-09T08:48:33.308Z,25.50
2019-02-09T08:51:06.578Z,22.37
2019-02-09T08:53:35.937Z,22.73
2019-02-09T08:56:05.746Z,23.47
2019-02-09T08:58:35.258Z,27.83
2019-02-09T09:01:05.372Z,24.57
2019-02-09T09:03:34.786Z,25.03
2019-02-09T09:06:04.758Z,23.30
2019-02-09T09:08:34.230Z,24.40
2019-02-09T09:11:03.719Z,22.37
2019-02-09T09:13:33.299Z,23.43
2019-02-09T09:16:06.481Z,25.20
2019-02-09T09:18:35.980Z,24.40
2019-02-09T09:21:06.026Z,25.97
2019-02-09T09:23:35.431Z,26.30
2019-02-09T09:26:05.142Z,25.17
2019-02-09T09:28:34.857Z,27.33
2019-02-09T09:31:04.547Z,26.87
2019-02-09T09:33:34.111Z,26.90
2019-02-09T09:36:03.709Z,25.87
2019-02-09T09:38:33.078Z,26.83
2019-02-09T09:41:02.457Z,28.00
2019-02-09T09:43:33.908Z,28.27
2019-02-09T09:46:03.236Z,29.80
2019-02-09T09:48:32.616Z,27.13
2019-02-09T09:51:02.136Z,39.47
2019-02-09T09:53:31.615Z,38.97
2019-02-09T09:56:01.065Z,30.27
2019-02-09T09:58:30.790Z,24.40
2019-02-09T10:01:00.185Z,26.57
2019-02-09T10:03:29.677Z,26.03
2019-02-09T10:05:59.189Z,29.07
2019-02-09T10:08:28.554Z,26.33
2019-02-09T10:10:58.015Z,27.20
2019-02-09T10:13:27.666Z,25.50
2019-02-09T10:15:57.042Z,25.90
2019-02-09T10:18:26.515Z,25.47
2019-02-09T10:20:56.020Z,26.73
2019-02-09T10:23:25.417Z,28.57
2019-02-09T10:25:54.820Z,27.97
2019-02-09T10:28:24.581Z,24.80
2019-02-09T10:30:54.041Z,19.30
2019-02-09T10:33:23.449Z,18.87
2019-02-09T10:35:52.873Z,19.37
2019-02-09T10:38:23.376Z,18.70
2019-02-09T10:40:52.876Z,19.00
2019-02-09T10:43:22.534Z,18.07
2019-02-09T10:45:51.908Z,17.47
2019-02-09T10:48:21.392Z,19.60
2019-02-09T10:50:51.061Z,16.87
2019-02-09T10:53:20.505Z,18.33
2019-02-09T10:55:50.054Z,21.10
2019-02-09T10:58:19.657Z,20.13
2019-02-09T11:00:55.511Z,19.60
2019-02-09T11:03:25.234Z,19.37
2019-02-09T11:05:54.831Z,17.63
2019-02-09T11:08:24.219Z,19.47
2019-02-09T11:10:53.840Z,21.30
2019-02-09T11:13:23.650Z,18.03
2019-02-09T11:15:53.124Z,17.50
2019-02-09T11:18:22.689Z,17.23
2019-02-09T11:20:52.173Z,17.80
2019-02-09T11:23:21.840Z,18.73
2019-02-09T11:25:51.324Z,17.00
2019-02-09T11:28:20.718Z,16.93
2019-02-09T11:30:50.224Z,18.53
2019-02-09T11:33:19.598Z,24.47
2019-02-09T11:35:48.975Z,21.70
2019-02-09T11:38:18.511Z,17.20
2019-02-09T11:40:47.959Z,18.10
2019-02-09T11:43:17.341Z,18.57
2019-02-09T11:45:46.768Z,19.40
2019-02-09T11:48:16.232Z,16.93
2019-02-09T11:50:45.688Z,15.37
2019-02-09T11:53:15.445Z,17.67
2019-02-09T11:55:44.831Z,16.47
2019-02-09T11:58:14.617Z,16.27
2019-02-09T12:00:50.569Z,15.93
2019-02-09T12:03:20.154Z,17.77
2019-02-09T12:05:49.530Z,18.70
2019-02-09T12:08:19.023Z,16.73
2019-02-09T12:10:48.393Z,17.63
2019-02-09T12:13:17.892Z,17.03
2019-02-09T12:15:47.437Z,17.63
2019-02-09T12:18:16.831Z,17.07
2019-02-09T12:20:46.213Z,19.93
2019-02-09T12:23:15.770Z,18.70
2019-02-09T12:25:45.992Z,20.57
2019-02-09T12:28:15.683Z,20.93
2019-02-09T12:30:45.294Z,20.93
2019-02-09T12:33:22.770Z,16.90
2019-02-09T12:35:46.109Z,19.27
2019-02-09T12:38:15.533Z,18.53
2019-02-09T12:40:44.943Z,29.63
2019-02-09T12:43:14.419Z,31.00
2019-02-09T12:45:43.972Z,25.50
2019-02-09T12:48:13.683Z,23.63
2019-02-09T12:50:43.241Z,22.90
2019-02-09T12:53:12.903Z,25.80
2019-02-09T12:55:42.295Z,23.70
2019-02-09T12:58:11.859Z,21.40
2019-02-09T13:00:41.465Z,26.83
2019-02-09T13:03:17.019Z,23.87
2019-02-09T13:05:47.396Z,33.77
2019-02-09T13:08:17.383Z,20.63
2019-02-09T13:10:46.890Z,18.33
2019-02-09T13:13:16.861Z,18.10
2019-02-09T13:15:46.563Z,20.47
2019-02-09T13:18:19.501Z,28.87
2019-02-09T13:20:48.999Z,18.73
2019-02-09T13:23:18.360Z,18.87
2019-02-09T13:25:47.789Z,20.23
2019-02-09T13:28:18.641Z,20.53
2019-02-09T13:30:48.081Z,20.10
2019-02-09T13:33:17.557Z,21.30
2019-02-09T13:35:47.089Z,20.07
2019-02-09T13:38:16.475Z,19.50
2019-02-09T13:40:45.924Z,17.83
2019-02-09T13:43:15.555Z,18.77
2019-02-09T13:45:48.249Z,18.07
2019-02-09T13:48:17.648Z,25.43
2019-02-09T13:50:47.345Z,18.50
2019-02-09T13:53:16.956Z,18.07
2019-02-09T13:55:46.472Z,18.77
2019-02-09T13:58:15.938Z,19.70
2019-02-09T14:00:45.427Z,20.20
2019-02-09T14:03:14.911Z,20.00
2019-02-09T14:05:44.519Z,19.53
2019-02-09T14:08:13.898Z,18.90
2019-02-09T14:10:43.363Z,20.10
2019-02-09T14:13:14.521Z,16.97
2019-02-09T14:15:44.270Z,18.50
2019-02-09T14:18:13.772Z,20.27
2019-02-09T14:20:43.400Z,19.53
2019-02-09T14:23:12.911Z,21.13
2019-02-09T14:25:42.470Z,20.60
2019-02-09T14:28:12.368Z,19.90
2019-02-09T14:30:42.479Z,26.70
2019-02-09T14:33:12.773Z,21.80
2019-02-09T14:35:43.369Z,23.43
2019-02-09T14:38:12.865Z,21.80
2019-02-09T14:40:43.019Z,20.93
2019-02-09T14:43:12.866Z,19.63
2019-02-09T14:45:44.078Z,22.67
2019-02-09T14:48:13.904Z,21.67
2019-02-09T14:50:43.592Z,24.70
2019-02-09T14:53:14.133Z,26.37
2019-02-09T14:55:44.152Z,26.83
2019-02-09T14:58:14.368Z,27.77
2019-02-09T15:00:49.298Z,27.00
2019-02-09T15:03:25.955Z,29.50
2019-02-09T15:05:49.961Z,31.27
2019-02-09T15:08:19.516Z,38.10
2019-02-09T15:10:49.066Z,31.33
2019-02-09T15:13:19.891Z,29.17
2019-02-09T15:15:56.227Z,32.73
2019-02-09T15:18:25.735Z,31.93
2019-02-09T15:20:58.001Z,28.63
2019-02-09T15:23:27.436Z,28.53
2019-02-09T15:25:56.900Z,30.67
2019-02-09T15:28:26.363Z,36.10
2019-02-09T15:30:56.404Z,37.60
2019-02-09T15:33:26.077Z,36.13
2019-02-09T15:35:55.606Z,33.17
2019-02-09T15:38:25.040Z,35.87
2019-02-09T15:40:54.465Z,35.30
2019-02-09T15:43:27.760Z,47.00
2019-02-09T15:46:00.184Z,47.50
2019-02-09T15:48:29.766Z,41.77
2019-02-09T15:50:59.312Z,43.73
2019-02-09T15:53:28.935Z,44.20
2019-02-09T15:55:58.360Z,47.00
2019-02-09T15:58:27.888Z,51.73
2019-02-09T16:00:57.368Z,82.67
2019-02-09T16:03:26.854Z,62.63
2019-02-09T16:05:56.338Z,59.23
2019-02-09T16:08:25.834Z,52.63
2019-02-09T16:10:55.469Z,62.60
2019-02-09T16:13:24.872Z,59.57
2019-02-09T16:15:54.365Z,55.30
2019-02-09T16:18:23.969Z,55.17
2019-02-09T16:20:53.391Z,54.57
2019-02-09T16:23:22.839Z,42.63
2019-02-09T16:25:52.480Z,34.53
2019-02-09T16:28:22.094Z,38.97
2019-02-09T16:30:51.579Z,45.17
2019-02-09T16:33:20.997Z,41.87
2019-02-09T16:35:50.452Z,40.50
2019-02-09T16:38:20.146Z,46.07
2019-02-09T16:40:49.667Z,35.70
2019-02-09T16:43:20.334Z,45.90
2019-02-09T16:45:49.971Z,48.97
2019-02-09T16:48:19.436Z,55.07
2019-02-09T16:50:48.900Z,60.80
2019-02-09T16:53:18.458Z,60.07
2019-02-09T16:55:48.158Z,52.07
2019-02-09T16:58:17.565Z,44.27
2019-02-09T17:00:47.420Z,45.63
2019-02-09T17:03:16.928Z,43.27
2019-02-09T17:05:46.355Z,41.43
2019-02-09T17:08:15.837Z,40.63
2019-02-09T17:10:45.923Z,53.65
2019-02-09T17:13:15.429Z,53.07
2019-02-09T17:15:44.900Z,57.23
2019-02-09T17:18:14.318Z,42.43
2019-02-09T17:20:43.790Z,45.47
2019-02-09T17:23:13.634Z,52.87
2019-02-09T17:25:43.162Z,58.33
2019-02-09T17:28:12.755Z,61.23
2019-02-09T17:30:42.803Z,58.93
2019-02-09T17:33:13.647Z,59.63
2019-02-09T17:35:43.077Z,52.63
2019-02-09T17:38:12.590Z,43.83
2019-02-09T17:40:47.173Z,49.90
2019-02-09T17:43:16.609Z,48.23
2019-02-09T17:45:51.879Z,46.50
2019-02-09T17:48:21.409Z,44.17
2019-02-09T17:50:50.859Z,44.13
2019-02-09T17:53:20.244Z,44.47
2019-02-09T17:55:50.102Z,47.63
2019-02-09T17:58:19.592Z,52.37
2019-02-09T18:01:08.023Z,54.03
2019-02-09T18:03:37.438Z,60.57
2019-02-09T18:06:07.042Z,61.07
2019-02-09T18:08:36.508Z,69.57
2019-02-09T18:11:06.441Z,74.13
2019-02-09T18:13:36.078Z,73.43
2019-02-09T18:16:06.006Z,73.57
2019-02-09T18:18:35.392Z,69.90
2019-02-09T18:21:04.938Z,66.20
2019-02-09T18:23:34.465Z,80.57
2019-02-09T18:26:03.900Z,80.40
2019-02-09T18:28:33.429Z,93.23
2019-02-09T18:31:02.915Z,88.30
2019-02-09T18:33:32.442Z,78.40
2019-02-09T18:36:01.881Z,72.73
2019-02-09T18:38:31.292Z,75.90
2019-02-09T18:41:00.750Z,82.40
2019-02-09T18:43:30.524Z,78.57
2019-02-09T18:46:00.003Z,86.67
2019-02-09T18:48:29.533Z,80.07
2019-02-09T18:50:58.978Z,73.43
2019-02-09T18:53:28.426Z,57.50
2019-02-09T18:55:58.108Z,60.73
2019-02-09T18:58:27.649Z,67.07
2019-02-09T19:00:57.153Z,73.80
2019-02-09T19:03:26.542Z,66.47
2019-02-09T19:05:55.989Z,70.17
2019-02-09T19:08:25.616Z,61.40
2019-02-09T19:10:55.051Z,53.00
2019-02-09T19:13:24.448Z,50.50
2019-02-09T19:15:53.977Z,55.33
2019-02-09T19:18:23.459Z,58.17
2019-02-09T19:20:55.690Z,57.50
2019-02-09T19:23:25.114Z,55.97
2019-02-09T19:25:54.594Z,72.90
2019-02-09T19:28:24.125Z,76.03
2019-02-09T19:30:53.594Z,70.70
2019-02-09T19:33:22.987Z,87.37
2019-02-09T19:35:52.479Z,71.97
2019-02-09T19:38:21.999Z,60.23
2019-02-09T19:40:51.618Z,56.00
2019-02-09T19:43:20.999Z,60.33
2019-02-09T19:45:50.923Z,65.80
2019-02-09T19:48:20.437Z,69.07
2019-02-09T19:50:49.872Z,84.53
2019-02-09T19:53:19.299Z,99.27
2019-02-09T19:55:48.750Z,107.57
2019-02-09T19:58:18.279Z,113.90
2019-02-09T20:00:48.072Z,119.63
2019-02-09T20:03:17.464Z,119.07
2019-02-09T20:05:46.928Z,106.63
2019-02-09T20:08:16.397Z,102.17
2019-02-09T20:10:45.832Z,104.67
2019-02-09T20:13:15.448Z,92.73
2019-02-09T20:15:45.019Z,77.13
2019-02-09T20:18:14.451Z,81.30
2019-02-09T20:20:47.349Z,83.93
2019-02-09T20:23:15.451Z,89.93
2019-02-09T20:25:44.865Z,90.83
2019-02-09T20:28:14.243Z,76.67
2019-02-09T20:30:44.031Z,71.90
2019-02-09T20:33:13.569Z,69.23
2019-02-09T20:35:43.047Z,73.43
2019-02-09T20:38:12.482Z,65.23
2019-02-09T20:40:47.877Z,77.33
2019-02-09T20:43:18.765Z,75.20
2019-02-09T20:45:48.283Z,73.73
2019-02-09T20:48:17.732Z,73.13
2019-02-09T20:50:47.228Z,76.10
2019-02-09T20:53:16.609Z,66.50
2019-02-09T20:55:46.059Z,58.10
2019-02-09T20:58:16.112Z,58.67
2019-02-09T21:00:45.530Z,59.30
2019-02-09T21:03:14.920Z,56.70
2019-02-09T21:05:44.408Z,62.90
2019-02-09T21:08:13.885Z,65.70
2019-02-09T21:10:43.467Z,66.77
2019-02-09T21:13:13.001Z,64.17
2019-02-09T21:15:42.418Z,64.00
2019-02-09T21:18:12.023Z,74.20
2019-02-09T21:20:41.483Z,64.50
2019-02-09T21:23:10.966Z,60.30
2019-02-09T21:25:42.140Z,61.57
2019-02-09T21:28:11.612Z,60.53
2019-02-09T21:30:41.409Z,63.93
2019-02-09T21:33:10.871Z,68.00
2019-02-09T21:35:44.021Z,63.97
2019-02-09T21:38:11.760Z,67.53
2019-02-09T21:40:41.259Z,73.47
2019-02-09T21:43:10.925Z,79.00
2019-02-09T21:45:45.485Z,92.37
2019-02-09T21:48:11.480Z,91.43
2019-02-09T21:50:41.263Z,97.37
2019-02-09T21:53:10.744Z,69.80
2019-02-09T21:55:40.194Z,69.77
2019-02-09T21:58:09.842Z,67.87
2019-02-09T22:00:41.498Z,68.40
2019-02-09T22:03:12.689Z,74.43
2019-02-09T22:05:42.307Z,79.40
2019-02-09T22:08:19.387Z,76.17
2019-02-09T22:10:44.825Z,80.37
2019-02-09T22:13:14.592Z,77.50
2019-02-09T22:15:44.103Z,78.63
2019-02-09T22:18:13.638Z,76.47
2019-02-09T22:20:43.250Z,77.47
2019-02-09T22:23:12.660Z,82.00
2019-02-09T22:25:42.154Z,83.37
2019-02-09T22:28:11.642Z,77.57
2019-02-09T22:30:41.165Z,74.13
2019-02-09T22:33:10.961Z,65.33
2019-02-09T22:35:40.417Z,60.53
2019-02-09T22:38:10.022Z,56.73
2019-02-09T22:40:39.754Z,56.30
2019-02-09T22:43:09.404Z,54.27
2019-02-09T22:45:38.867Z,52.37
2019-02-09T22:48:09.678Z,56.30
2019-02-09T22:50:41.515Z,51.10
2019-02-09T22:53:11.113Z,53.40
2019-02-09T22:55:40.690Z,52.77
2019-02-09T22:58:10.070Z,52.43
2019-02-09T23:01:05.756Z,54.50
2019-02-09T23:03:42.593Z,50.13
2019-02-09T23:06:42.885Z,50.30
2019-02-09T23:09:16.017Z,47.57
2019-02-09T23:11:45.466Z,46.63
2019-02-09T23:14:15.162Z,45.53
2019-02-09T23:16:44.615Z,45.40
2019-02-09T23:19:14.012Z,45.90
2019-02-09T23:21:43.505Z,46.67
2019-02-09T23:24:13.018Z,42.73
2019-02-09T23:26:42.461Z,43.50
2019-02-09T23:29:11.973Z,62.57
2019-02-09T23:31:41.451Z,52.67
2019-02-09T23:34:12.136Z,97.67
2019-02-09T23:36:41.623Z,76.60
2019-02-09T23:39:11.105Z,46.90
2019-02-09T23:41:40.551Z,51.33
2019-02-09T23:44:10.043Z,45.03
2019-02-09T23:46:39.495Z,41.13
2019-02-09T23:49:08.981Z,42.87
2019-02-09T23:51:38.443Z,44.17
2019-02-09T23:54:07.847Z,43.43
2019-02-09T23:56:37.294Z,45.80
2019-02-09T23:59:06.801Z,48.27
